sensor_id;sensor_type;location;lat;lon;timestamp;P1;durP1;ratioP1;P2;durP2;ratioP2
30505;SDS011;17292;51.600;4.994;2023-01-29T00:01:52;1.65;;;1.20;;
30505;SDS011;17292;51.600;4.994;2023-01-29T00:04:19;2.08;;;1.63;;
30505;SDS011;17292;51.600;4.994;2023-01-29T00:06:45;1.73;;;1.60;;
30505;SDS011;17292;51.600;4.994;2023-01-29T00:09:12;1.55;;;1.45;;
30505;SDS011;17292;51.600;4.994;2023-01-29T00:11:38;3.53;;;2.00;;
30505;SDS011;17292;51.600;4.994;2023-01-29T00:14:05;2.05;;;1.50;;
30505;SDS011;17292;51.600;4.994;2023-01-29T00:16:31;2.20;;;1.70;;
30505;SDS011;17292;51.600;4.994;2023-01-29T00:18:57;2.58;;;1.83;;
30505;SDS011;17292;51.600;4.994;2023-01-29T00:21:24;2.25;;;2.05;;
30505;SDS011;17292;51.600;4.994;2023-01-29T00:23:50;2.03;;;1.65;;
30505;SDS011;17292;51.600;4.994;2023-01-29T00:26:16;2.25;;;2.05;;
30505;SDS011;17292;51.600;4.994;2023-01-29T00:28:42;2.67;;;2.15;;
30505;SDS011;17292;51.600;4.994;2023-01-29T00:31:09;2.08;;;1.88;;
30505;SDS011;17292;51.600;4.994;2023-01-29T00:33:36;2.55;;;2.10;;
30505;SDS011;17292;51.600;4.994;2023-01-29T00:36:03;2.13;;;1.92;;
30505;SDS011;17292;51.600;4.994;2023-01-29T00:38:30;2.50;;;2.25;;
30505;SDS011;17292;51.600;4.994;2023-01-29T00:40:56;2.05;;;1.83;;
30505;SDS011;17292;51.600;4.994;2023-01-29T00:43:41;2.30;;;1.88;;
30505;SDS011;17292;51.600;4.994;2023-01-29T00:46:26;2.60;;;1.85;;
30505;SDS011;17292;51.600;4.994;2023-01-29T00:48:52;2.13;;;1.92;;
30505;SDS011;17292;51.600;4.994;2023-01-29T00:51:18;2.45;;;2.25;;
30505;SDS011;17292;51.600;4.994;2023-01-29T00:53:44;1.85;;;1.75;;
30505;SDS011;17292;51.600;4.994;2023-01-29T00:56:11;2.40;;;2.20;;
30505;SDS011;17292;51.600;4.994;2023-01-29T00:58:37;1.80;;;1.70;;
30505;SDS011;17292;51.600;4.994;2023-01-29T01:01:03;2.05;;;1.85;;
30505;SDS011;17292;51.600;4.994;2023-01-29T01:03:29;1.63;;;1.50;;
30505;SDS011;17292;51.600;4.994;2023-01-29T01:06:05;1.90;;;1.38;;
30505;SDS011;17292;51.600;4.994;2023-01-29T01:08:31;2.75;;;2.05;;
30505;SDS011;17292;51.600;4.994;2023-01-29T01:11:16;2.20;;;1.40;;
30505;SDS011;17292;51.600;4.994;2023-01-29T01:13:43;1.58;;;1.42;;
30505;SDS011;17292;51.600;4.994;2023-01-29T01:16:10;1.48;;;1.30;;
30505;SDS011;17292;51.600;4.994;2023-01-29T01:18:36;1.67;;;1.30;;
30505;SDS011;17292;51.600;4.994;2023-01-29T01:21:03;2.10;;;1.50;;
30505;SDS011;17292;51.600;4.994;2023-01-29T01:23:29;1.52;;;1.42;;
30505;SDS011;17292;51.600;4.994;2023-01-29T01:25:55;1.48;;;1.27;;
30505;SDS011;17292;51.600;4.994;2023-01-29T01:28:21;1.23;;;1.13;;
30505;SDS011;17292;51.600;4.994;2023-01-29T01:30:47;1.30;;;1.13;;
30505;SDS011;17292;51.600;4.994;2023-01-29T01:33:13;1.35;;;1.25;;
30505;SDS011;17292;51.600;4.994;2023-01-29T01:35:39;1.45;;;1.13;;
30505;SDS011;17292;51.600;4.994;2023-01-29T01:38:06;1.30;;;1.20;;
30505;SDS011;17292;51.600;4.994;2023-01-29T01:40:32;3.65;;;1.38;;
30505;SDS011;17292;51.600;4.994;2023-01-29T01:42:59;1.90;;;1.10;;
30505;SDS011;17292;51.600;4.994;2023-01-29T01:48:14;1.15;;;1.05;;
30505;SDS011;17292;51.600;4.994;2023-01-29T01:50:45;1.40;;;1.30;;
30505;SDS011;17292;51.600;4.994;2023-01-29T01:53:14;1.60;;;1.50;;
30505;SDS011;17292;51.600;4.994;2023-01-29T01:55:43;1.67;;;1.58;;
30505;SDS011;17292;51.600;4.994;2023-01-29T01:58:11;1.80;;;1.40;;
30505;SDS011;17292;51.600;4.994;2023-01-29T02:00:39;1.70;;;1.60;;
30505;SDS011;17292;51.600;4.994;2023-01-29T02:03:05;2.03;;;1.70;;
30505;SDS011;17292;51.600;4.994;2023-01-29T02:05:52;2.10;;;1.90;;
30505;SDS011;17292;51.600;4.994;2023-01-29T02:08:40;1.63;;;1.42;;
30505;SDS011;17292;51.600;4.994;2023-01-29T02:11:26;2.00;;;1.90;;
30505;SDS011;17292;51.600;4.994;2023-01-29T02:13:53;2.15;;;1.80;;
30505;SDS011;17292;51.600;4.994;2023-01-29T02:16:20;1.95;;;1.85;;
30505;SDS011;17292;51.600;4.994;2023-01-29T02:18:46;1.90;;;1.80;;
30505;SDS011;17292;51.600;4.994;2023-01-29T02:29:06;1.70;;;1.60;;
30505;SDS011;17292;51.600;4.994;2023-01-29T02:34:31;1.60;;;1.45;;
30505;SDS011;17292;51.600;4.994;2023-01-29T02:37:22;1.60;;;1.50;;
30505;SDS011;17292;51.600;4.994;2023-01-29T02:39:52;1.60;;;1.50;;
30505;SDS011;17292;51.600;4.994;2023-01-29T02:45:26;1.98;;;1.65;;
30505;SDS011;17292;51.600;4.994;2023-01-29T02:50:27;2.33;;;2.13;;
30505;SDS011;17292;51.600;4.994;2023-01-29T02:52:58;2.60;;;1.85;;
30505;SDS011;17292;51.600;4.994;2023-01-29T02:55:31;2.30;;;2.10;;
30505;SDS011;17292;51.600;4.994;2023-01-29T02:58:02;2.45;;;1.98;;
30505;SDS011;17292;51.600;4.994;2023-01-29T03:00:32;3.13;;;1.55;;
30505;SDS011;17292;51.600;4.994;2023-01-29T03:03:03;2.03;;;1.83;;
30505;SDS011;17292;51.600;4.994;2023-01-29T03:05:32;3.05;;;2.00;;
30505;SDS011;17292;51.600;4.994;2023-01-29T03:08:01;2.22;;;2.03;;
30505;SDS011;17292;51.600;4.994;2023-01-29T03:10:39;1.90;;;1.80;;
30505;SDS011;17292;51.600;4.994;2023-01-29T03:15:38;2.17;;;2.08;;
30505;SDS011;17292;51.600;4.994;2023-01-29T03:20:33;1.65;;;1.52;;
30505;SDS011;17292;51.600;4.994;2023-01-29T03:23:03;1.85;;;1.75;;
30505;SDS011;17292;51.600;4.994;2023-01-29T03:25:30;1.83;;;1.67;;
30505;SDS011;17292;51.600;4.994;2023-01-29T03:28:16;1.70;;;1.40;;
30505;SDS011;17292;51.600;4.994;2023-01-29T03:31:05;1.60;;;1.50;;
30505;SDS011;17292;51.600;4.994;2023-01-29T03:33:53;1.55;;;1.45;;
30505;SDS011;17292;51.600;4.994;2023-01-29T03:36:31;1.42;;;1.33;;
30505;SDS011;17292;51.600;4.994;2023-01-29T03:39:04;2.00;;;1.40;;
30505;SDS011;17292;51.600;4.994;2023-01-29T03:41:32;1.40;;;1.30;;
30505;SDS011;17292;51.600;4.994;2023-01-29T03:44:05;2.45;;;1.25;;
30505;SDS011;17292;51.600;4.994;2023-01-29T03:46:47;1.90;;;1.60;;
30505;SDS011;17292;51.600;4.994;2023-01-29T03:49:20;1.30;;;1.20;;
30505;SDS011;17292;51.600;4.994;2023-01-29T03:51:57;1.02;;;1.00;;
30505;SDS011;17292;51.600;4.994;2023-01-29T03:56:56;1.52;;;1.15;;
30505;SDS011;17292;51.600;4.994;2023-01-29T03:59:30;1.52;;;1.30;;
30505;SDS011;17292;51.600;4.994;2023-01-29T04:01:59;1.30;;;1.20;;
30505;SDS011;17292;51.600;4.994;2023-01-29T04:04:26;1.52;;;1.35;;
30505;SDS011;17292;51.600;4.994;2023-01-29T04:06:55;2.05;;;1.33;;
30505;SDS011;17292;51.600;4.994;2023-01-29T04:09:29;1.50;;;1.40;;
30505;SDS011;17292;51.600;4.994;2023-01-29T04:11:58;3.30;;;1.42;;
30505;SDS011;17292;51.600;4.994;2023-01-29T04:14:26;1.42;;;1.10;;
30505;SDS011;17292;51.600;4.994;2023-01-29T04:16:54;1.58;;;1.20;;
30505;SDS011;17292;51.600;4.994;2023-01-29T04:19:22;1.48;;;1.35;;
30505;SDS011;17292;51.600;4.994;2023-01-29T04:21:49;1.40;;;1.30;;
30505;SDS011;17292;51.600;4.994;2023-01-29T04:24:18;1.27;;;1.17;;
30505;SDS011;17292;51.600;4.994;2023-01-29T04:29:56;1.50;;;1.40;;
30505;SDS011;17292;51.600;4.994;2023-01-29T04:47:39;2.72;;;1.83;;
30505;SDS011;17292;51.600;4.994;2023-01-29T04:52:43;1.73;;;1.63;;
30505;SDS011;17292;51.600;4.994;2023-01-29T05:00:42;1.23;;;1.13;;
30505;SDS011;17292;51.600;4.994;2023-01-29T05:03:09;1.52;;;1.20;;
30505;SDS011;17292;51.600;4.994;2023-01-29T05:05:38;1.70;;;1.60;;
30505;SDS011;17292;51.600;4.994;2023-01-29T05:08:05;1.52;;;1.42;;
30505;SDS011;17292;51.600;4.994;2023-01-29T05:10:32;1.88;;;1.70;;
30505;SDS011;17292;51.600;4.994;2023-01-29T05:12:59;1.38;;;1.27;;
30505;SDS011;17292;51.600;4.994;2023-01-29T05:15:31;2.03;;;1.52;;
30505;SDS011;17292;51.600;4.994;2023-01-29T05:17:58;1.48;;;1.38;;
30505;SDS011;17292;51.600;4.994;2023-01-29T05:20:29;1.60;;;1.20;;
30505;SDS011;17292;51.600;4.994;2023-01-29T05:22:57;1.27;;;1.10;;
30505;SDS011;17292;51.600;4.994;2023-01-29T05:25:24;1.23;;;1.13;;
30505;SDS011;17292;51.600;4.994;2023-01-29T05:27:51;3.75;;;1.35;;
30505;SDS011;17292;51.600;4.994;2023-01-29T05:30:40;1.30;;;1.20;;
30505;SDS011;17292;51.600;4.994;2023-01-29T05:35:39;1.30;;;1.20;;
30505;SDS011;17292;51.600;4.994;2023-01-29T05:38:05;1.38;;;1.27;;
30505;SDS011;17292;51.600;4.994;2023-01-29T05:40:32;2.20;;;1.30;;
30505;SDS011;17292;51.600;4.994;2023-01-29T05:42:58;1.17;;;1.08;;
30505;SDS011;17292;51.600;4.994;2023-01-29T05:45:24;1.25;;;1.15;;
30505;SDS011;17292;51.600;4.994;2023-01-29T05:47:54;1.25;;;1.15;;
30505;SDS011;17292;51.600;4.994;2023-01-29T05:50:20;1.30;;;1.20;;
30505;SDS011;17292;51.600;4.994;2023-01-29T05:52:47;1.77;;;1.45;;
30505;SDS011;17292;51.600;4.994;2023-01-29T05:55:13;2.28;;;1.73;;
30505;SDS011;17292;51.600;4.994;2023-01-29T05:57:39;1.30;;;1.20;;
30505;SDS011;17292;51.600;4.994;2023-01-29T06:00:05;1.50;;;1.40;;
30505;SDS011;17292;51.600;4.994;2023-01-29T06:02:32;1.60;;;1.45;;
30505;SDS011;17292;51.600;4.994;2023-01-29T06:04:58;1.80;;;1.50;;
30505;SDS011;17292;51.600;4.994;2023-01-29T06:07:25;1.60;;;1.50;;
30505;SDS011;17292;51.600;4.994;2023-01-29T06:09:51;1.65;;;1.55;;
30505;SDS011;17292;51.600;4.994;2023-01-29T06:12:17;1.40;;;1.30;;
30505;SDS011;17292;51.600;4.994;2023-01-29T06:14:43;1.50;;;1.40;;
30505;SDS011;17292;51.600;4.994;2023-01-29T06:17:10;1.95;;;1.20;;
30505;SDS011;17292;51.600;4.994;2023-01-29T06:19:36;1.40;;;1.30;;
30505;SDS011;17292;51.600;4.994;2023-01-29T06:22:03;2.47;;;1.50;;
30505;SDS011;17292;51.600;4.994;2023-01-29T06:24:29;2.13;;;1.67;;
30505;SDS011;17292;51.600;4.994;2023-01-29T06:26:56;1.83;;;1.73;;
30505;SDS011;17292;51.600;4.994;2023-01-29T06:29:23;1.73;;;1.40;;
30505;SDS011;17292;51.600;4.994;2023-01-29T06:31:49;1.40;;;1.30;;
30505;SDS011;17292;51.600;4.994;2023-01-29T06:34:15;1.20;;;1.10;;
30505;SDS011;17292;51.600;4.994;2023-01-29T06:36:42;1.77;;;1.48;;
30505;SDS011;17292;51.600;4.994;2023-01-29T06:39:08;1.65;;;1.20;;
30505;SDS011;17292;51.600;4.994;2023-01-29T06:41:34;1.50;;;1.30;;
30505;SDS011;17292;51.600;4.994;2023-01-29T06:44:00;2.30;;;1.50;;
30505;SDS011;17292;51.600;4.994;2023-01-29T06:46:27;1.48;;;1.27;;
30505;SDS011;17292;51.600;4.994;2023-01-29T06:48:53;1.58;;;1.33;;
30505;SDS011;17292;51.600;4.994;2023-01-29T06:51:19;1.98;;;1.33;;
30505;SDS011;17292;51.600;4.994;2023-01-29T06:53:47;1.50;;;1.27;;
30505;SDS011;17292;51.600;4.994;2023-01-29T06:56:13;1.27;;;1.00;;
30505;SDS011;17292;51.600;4.994;2023-01-29T06:58:39;1.20;;;1.10;;
30505;SDS011;17292;51.600;4.994;2023-01-29T07:01:09;1.15;;;1.13;;
30505;SDS011;17292;51.600;4.994;2023-01-29T07:03:35;1.40;;;1.30;;
30505;SDS011;17292;51.600;4.994;2023-01-29T07:06:02;2.08;;;1.50;;
30505;SDS011;17292;51.600;4.994;2023-01-29T07:08:28;1.77;;;1.27;;
30505;SDS011;17292;51.600;4.994;2023-01-29T07:11:00;1.38;;;1.27;;
30505;SDS011;17292;51.600;4.994;2023-01-29T07:15:53;1.40;;;1.10;;
30505;SDS011;17292;51.600;4.994;2023-01-29T07:18:19;1.25;;;1.05;;
30505;SDS011;17292;51.600;4.994;2023-01-29T07:20:45;1.40;;;1.30;;
30505;SDS011;17292;51.600;4.994;2023-01-29T07:23:12;1.88;;;1.17;;
30505;SDS011;17292;51.600;4.994;2023-01-29T07:25:39;1.45;;;1.20;;
30505;SDS011;17292;51.600;4.994;2023-01-29T07:28:05;1.50;;;1.40;;
30505;SDS011;17292;51.600;4.994;2023-01-29T07:30:32;1.15;;;1.05;;
30505;SDS011;17292;51.600;4.994;2023-01-29T07:33:02;1.98;;;1.30;;
30505;SDS011;17292;51.600;4.994;2023-01-29T07:35:28;2.45;;;1.40;;
30505;SDS011;17292;51.600;4.994;2023-01-29T07:37:55;1.35;;;1.05;;
30505;SDS011;17292;51.600;4.994;2023-01-29T07:40:21;1.30;;;1.20;;
30505;SDS011;17292;51.600;4.994;2023-01-29T07:42:47;1.58;;;1.48;;
30505;SDS011;17292;51.600;4.994;2023-01-29T07:45:14;1.50;;;1.35;;
30505;SDS011;17292;51.600;4.994;2023-01-29T07:47:40;1.52;;;1.42;;
30505;SDS011;17292;51.600;4.994;2023-01-29T07:50:06;1.63;;;1.30;;
30505;SDS011;17292;51.600;4.994;2023-01-29T07:52:32;1.48;;;1.38;;
30505;SDS011;17292;51.600;4.994;2023-01-29T07:54:59;1.48;;;1.38;;
30505;SDS011;17292;51.600;4.994;2023-01-29T07:57:25;1.40;;;1.30;;
30505;SDS011;17292;51.600;4.994;2023-01-29T07:59:52;1.40;;;1.30;;
30505;SDS011;17292;51.600;4.994;2023-01-29T08:02:18;1.33;;;1.23;;
30505;SDS011;17292;51.600;4.994;2023-01-29T08:04:44;1.50;;;1.23;;
30505;SDS011;17292;51.600;4.994;2023-01-29T08:07:10;1.60;;;1.30;;
30505;SDS011;17292;51.600;4.994;2023-01-29T08:09:36;1.30;;;1.20;;
30505;SDS011;17292;51.600;4.994;2023-01-29T08:12:02;1.50;;;1.40;;
30505;SDS011;17292;51.600;4.994;2023-01-29T08:14:29;2.17;;;1.30;;
30505;SDS011;17292;51.600;4.994;2023-01-29T08:16:55;1.27;;;1.15;;
30505;SDS011;17292;51.600;4.994;2023-01-29T08:19:21;2.80;;;1.23;;
30505;SDS011;17292;51.600;4.994;2023-01-29T08:21:47;1.20;;;1.10;;
30505;SDS011;17292;51.600;4.994;2023-01-29T08:24:13;1.45;;;1.30;;
30505;SDS011;17292;51.600;4.994;2023-01-29T08:26:39;1.23;;;1.13;;
30505;SDS011;17292;51.600;4.994;2023-01-29T08:29:06;1.58;;;1.20;;
30505;SDS011;17292;51.600;4.994;2023-01-29T08:31:32;1.48;;;1.38;;
30505;SDS011;17292;51.600;4.994;2023-01-29T08:33:59;0.95;;;0.90;;
30505;SDS011;17292;51.600;4.994;2023-01-29T08:36:25;1.30;;;1.20;;
30505;SDS011;17292;51.600;4.994;2023-01-29T08:38:51;1.35;;;1.20;;
30505;SDS011;17292;51.600;4.994;2023-01-29T08:41:17;1.27;;;1.17;;
30505;SDS011;17292;51.600;4.994;2023-01-29T08:43:44;1.90;;;1.27;;
30505;SDS011;17292;51.600;4.994;2023-01-29T08:46:10;1.00;;;1.00;;
30505;SDS011;17292;51.600;4.994;2023-01-29T08:48:37;1.15;;;1.00;;
30505;SDS011;17292;51.600;4.994;2023-01-29T08:51:03;1.20;;;1.10;;
30505;SDS011;17292;51.600;4.994;2023-01-29T08:53:30;1.58;;;1.17;;
30505;SDS011;17292;51.600;4.994;2023-01-29T08:55:56;1.67;;;1.30;;
30505;SDS011;17292;51.600;4.994;2023-01-29T08:58:22;1.20;;;1.10;;
30505;SDS011;17292;51.600;4.994;2023-01-29T09:00:49;1.27;;;1.17;;
30505;SDS011;17292;51.600;4.994;2023-01-29T09:03:15;1.27;;;1.20;;
30505;SDS011;17292;51.600;4.994;2023-01-29T09:05:41;2.25;;;1.13;;
30505;SDS011;17292;51.600;4.994;2023-01-29T09:08:08;1.38;;;1.27;;
30505;SDS011;17292;51.600;4.994;2023-01-29T09:10:34;1.08;;;1.08;;
30505;SDS011;17292;51.600;4.994;2023-01-29T09:13:01;1.20;;;1.10;;
30505;SDS011;17292;51.600;4.994;2023-01-29T09:15:27;1.17;;;1.15;;
30505;SDS011;17292;51.600;4.994;2023-01-29T09:17:53;1.30;;;1.20;;
30505;SDS011;17292;51.600;4.994;2023-01-29T09:20:20;1.02;;;1.00;;
30505;SDS011;17292;51.600;4.994;2023-01-29T09:22:46;1.30;;;1.20;;
30505;SDS011;17292;51.600;4.994;2023-01-29T09:25:13;1.35;;;1.25;;
30505;SDS011;17292;51.600;4.994;2023-01-29T09:30:49;1.38;;;1.20;;
30505;SDS011;17292;51.600;4.994;2023-01-29T09:33:15;0.90;;;0.90;;
30505;SDS011;17292;51.600;4.994;2023-01-29T09:35:42;1.45;;;1.35;;
30505;SDS011;17292;51.600;4.994;2023-01-29T09:38:12;1.20;;;1.10;;
30505;SDS011;17292;51.600;4.994;2023-01-29T09:45:31;3.28;;;1.63;;
30505;SDS011;17292;51.600;4.994;2023-01-29T09:47:59;1.48;;;1.38;;
30505;SDS011;17292;51.600;4.994;2023-01-29T09:50:39;1.40;;;1.30;;
30505;SDS011;17292;51.600;4.994;2023-01-29T09:55:36;1.60;;;1.50;;
30505;SDS011;17292;51.600;4.994;2023-01-29T09:58:06;1.95;;;1.38;;
30505;SDS011;17292;51.600;4.994;2023-01-29T10:00:43;1.40;;;1.23;;
30505;SDS011;17292;51.600;4.994;2023-01-29T10:05:58;1.23;;;1.13;;
30505;SDS011;17292;51.600;4.994;2023-01-29T10:13:37;1.27;;;1.02;;
30505;SDS011;17292;51.600;4.994;2023-01-29T10:24:01;1.30;;;1.20;;
30505;SDS011;17292;51.600;4.994;2023-01-29T10:26:32;1.17;;;1.17;;
30505;SDS011;17292;51.600;4.994;2023-01-29T10:29:00;1.48;;;1.10;;
30505;SDS011;17292;51.600;4.994;2023-01-29T10:31:31;1.65;;;1.17;;
30505;SDS011;17292;51.600;4.994;2023-01-29T10:34:41;1.33;;;1.23;;
30505;SDS011;17292;51.600;4.994;2023-01-29T10:36:47;1.10;;;1.00;;
30505;SDS011;17292;51.600;4.994;2023-01-29T10:39:18;1.33;;;1.20;;
30505;SDS011;17292;51.600;4.994;2023-01-29T10:47:06;1.60;;;1.10;;
30505;SDS011;17292;51.600;4.994;2023-01-29T10:57:35;1.27;;;1.23;;
30505;SDS011;17292;51.600;4.994;2023-01-29T11:05:04;1.88;;;1.40;;
30505;SDS011;17292;51.600;4.994;2023-01-29T11:07:31;1.73;;;1.52;;
30505;SDS011;17292;51.600;4.994;2023-01-29T11:10:02;1.30;;;1.20;;
30505;SDS011;17292;51.600;4.994;2023-01-29T11:12:29;1.40;;;1.30;;
30505;SDS011;17292;51.600;4.994;2023-01-29T11:17:24;1.33;;;1.23;;
30505;SDS011;17292;51.600;4.994;2023-01-29T11:19:51;1.38;;;1.27;;
30505;SDS011;17292;51.600;4.994;2023-01-29T11:22:20;1.35;;;1.25;;
30505;SDS011;17292;51.600;4.994;2023-01-29T11:25:29;1.80;;;1.70;;
30505;SDS011;17292;51.600;4.994;2023-01-29T11:27:44;1.40;;;1.30;;
30505;SDS011;17292;51.600;4.994;2023-01-29T11:30:14;1.70;;;1.20;;
30505;SDS011;17292;51.600;4.994;2023-01-29T11:32:40;1.50;;;1.40;;
30505;SDS011;17292;51.600;4.994;2023-01-29T11:37:39;1.65;;;1.55;;
30505;SDS011;17292;51.600;4.994;2023-01-29T11:40:27;1.60;;;1.20;;
30505;SDS011;17292;51.600;4.994;2023-01-29T11:42:52;1.40;;;1.30;;
30505;SDS011;17292;51.600;4.994;2023-01-29T11:47:48;1.35;;;1.25;;
30505;SDS011;17292;51.600;4.994;2023-01-29T11:50:23;1.33;;;1.23;;
30505;SDS011;17292;51.600;4.994;2023-01-29T11:52:51;1.60;;;1.50;;
30505;SDS011;17292;51.600;4.994;2023-01-29T11:55:18;1.40;;;1.30;;
30505;SDS011;17292;51.600;4.994;2023-01-29T11:57:47;1.48;;;1.38;;
30505;SDS011;17292;51.600;4.994;2023-01-29T12:02:42;1.27;;;1.17;;
30505;SDS011;17292;51.600;4.994;2023-01-29T12:07:40;1.45;;;1.35;;
30505;SDS011;17292;51.600;4.994;2023-01-29T12:10:27;1.52;;;1.08;;
30505;SDS011;17292;51.600;4.994;2023-01-29T12:12:53;1.42;;;1.10;;
30505;SDS011;17292;51.600;4.994;2023-01-29T12:15:28;2.10;;;1.00;;
30505;SDS011;17292;51.600;4.994;2023-01-29T12:18:01;1.58;;;1.00;;
30505;SDS011;17292;51.600;4.994;2023-01-29T12:20:47;1.63;;;1.30;;
30505;SDS011;17292;51.600;4.994;2023-01-29T12:28:29;1.20;;;1.10;;
30505;SDS011;17292;51.600;4.994;2023-01-29T12:31:05;1.33;;;1.23;;
30505;SDS011;17292;51.600;4.994;2023-01-29T12:36:01;1.05;;;1.05;;
30505;SDS011;17292;51.600;4.994;2023-01-29T12:38:32;1.20;;;1.10;;
30505;SDS011;17292;51.600;4.994;2023-01-29T12:43:29;1.23;;;1.13;;
30505;SDS011;17292;51.600;4.994;2023-01-29T12:45:57;1.45;;;1.35;;
30505;SDS011;17292;51.600;4.994;2023-01-29T12:48:32;1.33;;;1.10;;
30505;SDS011;17292;51.600;4.994;2023-01-29T12:51:03;1.20;;;1.10;;
30505;SDS011;17292;51.600;4.994;2023-01-29T12:53:33;2.05;;;1.38;;
30505;SDS011;17292;51.600;4.994;2023-01-29T12:56:14;1.45;;;1.00;;
30505;SDS011;17292;51.600;4.994;2023-01-29T12:58:47;1.40;;;1.30;;
30505;SDS011;17292;51.600;4.994;2023-01-29T13:01:16;1.48;;;1.20;;
30505;SDS011;17292;51.600;4.994;2023-01-29T13:03:52;1.15;;;1.05;;
30505;SDS011;17292;51.600;4.994;2023-01-29T13:06:25;1.15;;;1.05;;
30505;SDS011;17292;51.600;4.994;2023-01-29T13:08:54;1.27;;;1.17;;
30505;SDS011;17292;51.600;4.994;2023-01-29T13:11:36;1.48;;;1.30;;
30505;SDS011;17292;51.600;4.994;2023-01-29T13:16:54;2.75;;;1.30;;
30505;SDS011;17292;51.600;4.994;2023-01-29T13:19:26;2.22;;;1.23;;
30505;SDS011;17292;51.600;4.994;2023-01-29T13:21:54;1.50;;;1.40;;
30505;SDS011;17292;51.600;4.994;2023-01-29T13:24:22;1.20;;;1.10;;
30505;SDS011;17292;51.600;4.994;2023-01-29T13:26:49;1.20;;;1.10;;
30505;SDS011;17292;51.600;4.994;2023-01-29T13:29:25;1.30;;;1.20;;
30505;SDS011;17292;51.600;4.994;2023-01-29T13:31:53;1.30;;;1.20;;
30505;SDS011;17292;51.600;4.994;2023-01-29T13:34:24;1.20;;;1.10;;
30505;SDS011;17292;51.600;4.994;2023-01-29T13:37:02;1.55;;;1.42;;
30505;SDS011;17292;51.600;4.994;2023-01-29T13:39:32;1.70;;;1.42;;
30505;SDS011;17292;51.600;4.994;2023-01-29T13:42:00;1.30;;;1.20;;
30505;SDS011;17292;51.600;4.994;2023-01-29T13:44:36;1.55;;;1.40;;
30505;SDS011;17292;51.600;4.994;2023-01-29T13:47:07;1.58;;;1.05;;
30505;SDS011;17292;51.600;4.994;2023-01-29T13:49:41;0.93;;;0.93;;
30505;SDS011;17292;51.600;4.994;2023-01-29T13:52:18;1.23;;;1.13;;
30505;SDS011;17292;51.600;4.994;2023-01-29T13:54:49;1.40;;;1.30;;
30505;SDS011;17292;51.600;4.994;2023-01-29T13:57:46;1.05;;;1.05;;
30505;SDS011;17292;51.600;4.994;2023-01-29T14:02:41;1.40;;;1.10;;
30505;SDS011;17292;51.600;4.994;2023-01-29T14:07:53;1.10;;;1.00;;
30505;SDS011;17292;51.600;4.994;2023-01-29T14:10:19;1.10;;;1.00;;
30505;SDS011;17292;51.600;4.994;2023-01-29T14:12:47;1.48;;;1.38;;
30505;SDS011;17292;51.600;4.994;2023-01-29T14:15:26;1.10;;;1.10;;
30505;SDS011;17292;51.600;4.994;2023-01-29T14:20:49;1.48;;;1.38;;
30505;SDS011;17292;51.600;4.994;2023-01-29T14:25:55;1.45;;;1.20;;
30505;SDS011;17292;51.600;4.994;2023-01-29T14:28:23;1.05;;;0.98;;
30505;SDS011;17292;51.600;4.994;2023-01-29T14:30:51;1.00;;;1.00;;
30505;SDS011;17292;51.600;4.994;2023-01-29T14:33:33;1.35;;;1.25;;
30505;SDS011;17292;51.600;4.994;2023-01-29T14:36:04;1.13;;;1.02;;
30505;SDS011;17292;51.600;4.994;2023-01-29T14:38:31;1.38;;;1.27;;
30505;SDS011;17292;51.600;4.994;2023-01-29T14:41:06;1.80;;;1.38;;
30505;SDS011;17292;51.600;4.994;2023-01-29T14:43:34;1.35;;;1.25;;
30505;SDS011;17292;51.600;4.994;2023-01-29T14:48:45;1.35;;;1.25;;
30505;SDS011;17292;51.600;4.994;2023-01-29T14:51:15;1.52;;;1.13;;
30505;SDS011;17292;51.600;4.994;2023-01-29T14:56:10;1.45;;;1.35;;
30505;SDS011;17292;51.600;4.994;2023-01-29T14:58:43;1.67;;;1.23;;
30505;SDS011;17292;51.600;4.994;2023-01-29T15:03:43;1.75;;;1.27;;
30505;SDS011;17292;51.600;4.994;2023-01-29T15:06:17;1.50;;;1.40;;
30505;SDS011;17292;51.600;4.994;2023-01-29T15:08:46;1.30;;;1.20;;
30505;SDS011;17292;51.600;4.994;2023-01-29T15:11:16;1.20;;;1.10;;
30505;SDS011;17292;51.600;4.994;2023-01-29T15:14:12;1.35;;;1.10;;
30505;SDS011;17292;51.600;4.994;2023-01-29T15:17:21;1.33;;;1.23;;
30505;SDS011;17292;51.600;4.994;2023-01-29T15:19:53;1.00;;;1.00;;
30505;SDS011;17292;51.600;4.994;2023-01-29T15:22:21;1.08;;;1.00;;
30505;SDS011;17292;51.600;4.994;2023-01-29T15:27:34;1.00;;;1.00;;
30505;SDS011;17292;51.600;4.994;2023-01-29T15:30:03;1.23;;;1.13;;
30505;SDS011;17292;51.600;4.994;2023-01-29T15:32:32;1.10;;;1.00;;
30505;SDS011;17292;51.600;4.994;2023-01-29T15:35:00;1.30;;;1.20;;
30505;SDS011;17292;51.600;4.994;2023-01-29T15:37:31;1.23;;;1.10;;
30505;SDS011;17292;51.600;4.994;2023-01-29T15:39:58;1.40;;;1.25;;
30505;SDS011;17292;51.600;4.994;2023-01-29T15:42:28;1.08;;;1.02;;
30505;SDS011;17292;51.600;4.994;2023-01-29T15:44:54;2.50;;;1.23;;
30505;SDS011;17292;51.600;4.994;2023-01-29T15:47:21;1.10;;;1.00;;
30505;SDS011;17292;51.600;4.994;2023-01-29T15:49:48;1.23;;;0.98;;
30505;SDS011;17292;51.600;4.994;2023-01-29T15:54:44;1.20;;;1.10;;
30505;SDS011;17292;51.600;4.994;2023-01-29T15:57:24;2.08;;;1.20;;
30505;SDS011;17292;51.600;4.994;2023-01-29T15:59:51;1.52;;;1.20;;
30505;SDS011;17292;51.600;4.994;2023-01-29T16:05:00;1.40;;;1.30;;
30505;SDS011;17292;51.600;4.994;2023-01-29T16:07:27;1.25;;;1.15;;
30505;SDS011;17292;51.600;4.994;2023-01-29T16:09:53;1.30;;;1.20;;
30505;SDS011;17292;51.600;4.994;2023-01-29T16:12:20;1.30;;;1.20;;
30505;SDS011;17292;51.600;4.994;2023-01-29T16:14:47;1.10;;;1.00;;
30505;SDS011;17292;51.600;4.994;2023-01-29T16:19:54;1.35;;;1.25;;
30505;SDS011;17292;51.600;4.994;2023-01-29T16:22:20;1.38;;;1.27;;
30505;SDS011;17292;51.600;4.994;2023-01-29T16:24:46;1.17;;;1.10;;
30505;SDS011;17292;51.600;4.994;2023-01-29T16:27:17;1.08;;;1.08;;
30505;SDS011;17292;51.600;4.994;2023-01-29T16:29:43;1.40;;;1.27;;
30505;SDS011;17292;51.600;4.994;2023-01-29T16:32:10;1.30;;;1.10;;
30505;SDS011;17292;51.600;4.994;2023-01-29T16:34:38;1.73;;;1.25;;
30505;SDS011;17292;51.600;4.994;2023-01-29T16:37:07;1.33;;;1.23;;
30505;SDS011;17292;51.600;4.994;2023-01-29T16:39:42;1.25;;;1.15;;
30505;SDS011;17292;51.600;4.994;2023-01-29T16:44:39;1.23;;;1.13;;
30505;SDS011;17292;51.600;4.994;2023-01-29T16:47:10;1.20;;;1.10;;
30505;SDS011;17292;51.600;4.994;2023-01-29T16:52:26;1.10;;;1.10;;
30505;SDS011;17292;51.600;4.994;2023-01-29T16:57:37;1.20;;;1.13;;
30505;SDS011;17292;51.600;4.994;2023-01-29T17:00:05;1.20;;;1.10;;
30505;SDS011;17292;51.600;4.994;2023-01-29T17:02:35;2.05;;;1.40;;
30505;SDS011;17292;51.600;4.994;2023-01-29T17:05:04;1.20;;;1.10;;
30505;SDS011;17292;51.600;4.994;2023-01-29T17:07:31;1.33;;;1.23;;
30505;SDS011;17292;51.600;4.994;2023-01-29T17:09:59;0.90;;;0.90;;
30505;SDS011;17292;51.600;4.994;2023-01-29T17:12:26;1.00;;;1.00;;
30505;SDS011;17292;51.600;4.994;2023-01-29T17:15:00;1.25;;;1.10;;
30505;SDS011;17292;51.600;4.994;2023-01-29T17:17:33;1.83;;;1.23;;
30505;SDS011;17292;51.600;4.994;2023-01-29T17:20:13;1.23;;;1.13;;
30505;SDS011;17292;51.600;4.994;2023-01-29T17:22:39;1.02;;;1.00;;
30505;SDS011;17292;51.600;4.994;2023-01-29T17:25:05;1.17;;;1.00;;
30505;SDS011;17292;51.600;4.994;2023-01-29T17:27:32;1.42;;;1.10;;
30505;SDS011;17292;51.600;4.994;2023-01-29T17:29:58;1.70;;;1.05;;
30505;SDS011;17292;51.600;4.994;2023-01-29T17:32:24;1.15;;;1.15;;
30505;SDS011;17292;51.600;4.994;2023-01-29T17:34:51;1.13;;;1.00;;
30505;SDS011;17292;51.600;4.994;2023-01-29T17:37:18;1.30;;;1.20;;
30505;SDS011;17292;51.600;4.994;2023-01-29T17:39:44;1.20;;;1.10;;
30505;SDS011;17292;51.600;4.994;2023-01-29T17:42:14;1.30;;;1.20;;
30505;SDS011;17292;51.600;4.994;2023-01-29T17:44:41;1.00;;;1.00;;
30505;SDS011;17292;51.600;4.994;2023-01-29T17:47:11;1.33;;;1.23;;